source [weather.noaa.gov]
TAF EDDP 180500Z 1806/1906 21012KT 9999 BKN025 BECMG 1806/1809 26015G25KT PROB30 TEMPO 1807/1810 1500 SN BKN008 BECMG 1809/1811 22020G35KT BECMG 1811/1813 24030G45KT TEMPO 1813/1820 25040G55KT PROB30 TEMPO 1814/1820 26045G65KT BECMG 1820/1823 27012KT

TAF EDDC 180500Z 1806/1906 24012KT 9999 BKN040 BECMG 1806/1809 18012KT BECMG 1809/1812 24020G35KT TEMPO 1809/1812 2000 SNRA BKN012 BECMG 1812/1815 26025G50KT BECMG 1815/1818 27030G55KT TEMPO 1817/1820 28035G60KT BECMG 1821/1824 29015G35KT BECMG 1900/1903 26010KT

TAF TAF EDDE 180500Z 1806/1906 20015G30KT 9999 BKN020 PROB30 TEMPO 1806/1810 1500 SN SCT005 BKN008 BECMG 1807/1809 22020G35KT BECMG 1809/1812 24030G45KT TEMPO 1812/1818 25040G55KT PROB30 TEMPO 1814/1817 26045G65KT BECMG 1818/1822 27013KT